createdAt,value
2019-05-05T00:01:35.834Z,5.00
2019-05-05T00:04:24.279Z,4.80
2019-05-05T00:06:55.018Z,4.80
2019-05-05T00:09:27.001Z,5.00
2019-05-05T00:12:15.264Z,5.10
2019-05-05T00:15:05.185Z,4.70
2019-05-05T00:17:38.708Z,5.00
2019-05-05T00:20:09.367Z,5.00
2019-05-05T00:22:40.019Z,5.00
2019-05-05T00:25:10.444Z,4.90
2019-05-05T00:27:40.904Z,5.00
2019-05-05T00:30:11.552Z,5.00
2019-05-05T00:32:44.157Z,5.10
2019-05-05T00:35:14.978Z,4.70
2019-05-05T00:37:46.733Z,5.00
2019-05-05T00:40:17.568Z,5.00
2019-05-05T00:42:50.047Z,4.80
2019-05-05T00:45:21.518Z,5.00
2019-05-05T00:47:57.837Z,4.80
2019-05-05T00:50:28.523Z,4.70
2019-05-05T00:52:59.414Z,4.60
2019-05-05T00:55:30.415Z,5.00
2019-05-05T00:58:05.115Z,5.00
2019-05-05T01:00:48.407Z,4.80
2019-05-05T01:03:21.252Z,4.70
2019-05-05T01:06:04.569Z,4.70
2019-05-05T01:08:35.348Z,4.80
2019-05-05T01:11:06.374Z,4.80
2019-05-05T01:13:36.674Z,4.80
2019-05-05T01:16:07.005Z,4.70
2019-05-05T01:18:37.553Z,4.80
2019-05-05T01:21:08.151Z,5.00
2019-05-05T01:23:38.682Z,5.00
2019-05-05T01:26:09.812Z,4.90
2019-05-05T01:28:41.302Z,4.70
2019-05-05T01:31:15.402Z,4.70
2019-05-05T01:34:15.120Z,5.00
2019-05-05T01:36:47.282Z,4.80
2019-05-05T01:39:48.836Z,4.80
2019-05-05T01:42:20.404Z,4.80
2019-05-05T01:44:51.098Z,4.80
2019-05-05T01:47:22.242Z,4.80
2019-05-05T01:49:54.436Z,4.50
2019-05-05T01:52:26.707Z,4.80
2019-05-05T01:54:58.216Z,4.80
2019-05-05T01:57:29.401Z,4.80
2019-05-05T02:00:01.225Z,4.90
2019-05-05T02:02:34.255Z,4.70
2019-05-05T02:05:07.111Z,4.60
2019-05-05T02:07:39.403Z,4.80
2019-05-05T02:10:11.217Z,4.40
2019-05-05T02:12:42.030Z,4.50
2019-05-05T02:15:14.909Z,4.40
2019-05-05T02:17:45.642Z,4.50
2019-05-05T02:20:54.488Z,4.30
2019-05-05T02:23:24.972Z,4.50
2019-05-05T02:25:55.526Z,4.50
2019-05-05T02:28:28.350Z,4.20
2019-05-05T02:31:10.166Z,4.40
2019-05-05T02:33:41.280Z,4.50
2019-05-05T02:36:12.162Z,4.50
2019-05-05T02:38:46.246Z,4.50
2019-05-05T02:41:16.012Z,4.40
2019-05-05T02:43:46.886Z,4.60
2019-05-05T02:46:40.235Z,4.50
2019-05-05T02:49:11.398Z,4.50
2019-05-05T02:51:44.697Z,4.30
2019-05-05T02:54:17.742Z,4.50
2019-05-05T02:56:50.430Z,4.50
2019-05-05T02:59:39.129Z,4.30
2019-05-05T03:02:19.510Z,4.10
2019-05-05T03:04:50.662Z,4.40
2019-05-05T03:07:25.084Z,4.40
2019-05-05T03:09:59.181Z,4.30
2019-05-05T03:12:34.638Z,4.30
2019-05-05T03:15:05.983Z,4.50
2019-05-05T03:17:36.943Z,4.40
2019-05-05T03:20:08.355Z,4.50
2019-05-05T03:22:38.960Z,4.50
2019-05-05T03:25:09.652Z,4.70
2019-05-05T03:27:40.490Z,4.50
2019-05-05T03:30:11.061Z,4.60
2019-05-05T03:32:45.248Z,4.40
2019-05-05T03:35:14.133Z,4.40
2019-05-05T03:37:45.006Z,4.40
2019-05-05T03:40:23.773Z,4.10
2019-05-05T03:43:04.088Z,4.40
2019-05-05T03:45:45.299Z,4.50
2019-05-05T03:48:16.173Z,4.50
2019-05-05T03:50:46.712Z,4.50
2019-05-05T03:53:17.676Z,4.50
2019-05-05T03:55:48.873Z,4.30
2019-05-05T03:58:19.745Z,4.20
2019-05-05T04:01:30.699Z,4.70
2019-05-05T04:04:19.054Z,4.50
2019-05-05T04:06:50.818Z,4.50
2019-05-05T04:09:21.674Z,4.50
2019-05-05T04:11:53.957Z,4.40
2019-05-05T04:14:25.284Z,4.20
2019-05-05T04:17:06.448Z,4.40
2019-05-05T04:19:40.561Z,4.50
2019-05-05T04:22:13.406Z,4.20
2019-05-05T04:24:43.890Z,4.50
2019-05-05T04:27:14.772Z,4.20
2019-05-05T04:29:45.358Z,4.50
2019-05-05T04:32:15.914Z,4.20
2019-05-05T04:34:46.688Z,4.10
2019-05-05T04:37:17.133Z,4.40
2019-05-05T04:39:47.562Z,4.10
2019-05-05T04:42:17.993Z,4.40
2019-05-05T04:44:48.856Z,4.40
2019-05-05T04:47:24.964Z,4.50
2019-05-05T04:50:05.754Z,4.30
2019-05-05T04:52:36.612Z,4.40
2019-05-05T04:55:07.266Z,4.50
2019-05-05T04:57:39.650Z,4.30
2019-05-05T05:00:10.363Z,4.10
2019-05-05T05:02:56.425Z,4.40
2019-05-05T05:05:31.195Z,4.10
2019-05-05T05:08:03.738Z,4.40
2019-05-05T05:10:34.692Z,4.40
2019-05-05T05:13:05.407Z,4.30
2019-05-05T05:15:36.118Z,3.90
2019-05-05T05:18:14.895Z,4.00
2019-05-05T05:20:45.812Z,3.80
2019-05-05T05:23:16.233Z,4.10
2019-05-05T05:25:47.218Z,4.20
2019-05-05T05:28:19.269Z,4.10
2019-05-05T05:30:54.579Z,4.10
2019-05-05T05:33:26.176Z,3.90
2019-05-05T05:35:56.805Z,3.90
2019-05-05T05:38:27.511Z,4.20
2019-05-05T05:41:11.645Z,4.00
2019-05-05T05:44:03.711Z,3.90
2019-05-05T05:47:03.583Z,4.00
2019-05-05T05:49:43.986Z,4.10
2019-05-05T05:52:18.993Z,4.20
2019-05-05T05:54:48.420Z,4.00
2019-05-05T05:57:20.697Z,4.20
2019-05-05T05:59:51.123Z,4.30
2019-05-05T06:02:21.565Z,4.40
2019-05-05T06:04:53.772Z,4.50
2019-05-05T06:07:24.702Z,4.40
2019-05-05T06:09:55.272Z,4.50
2019-05-05T06:12:25.978Z,4.50
2019-05-05T06:14:56.463Z,4.20
2019-05-05T06:17:27.382Z,4.30
2019-05-05T06:19:57.921Z,4.70
2019-05-05T06:22:31.373Z,4.30
2019-05-05T06:25:00.527Z,4.20
2019-05-05T06:27:31.454Z,4.20
2019-05-05T06:30:04.340Z,4.40
2019-05-05T06:32:34.595Z,4.20
2019-05-05T06:35:05.615Z,4.50
2019-05-05T06:37:36.113Z,4.20
2019-05-05T06:40:08.189Z,4.50
2019-05-05T06:42:57.578Z,4.20
2019-05-05T06:45:39.959Z,4.50
2019-05-05T06:48:13.542Z,4.70
2019-05-05T06:50:43.998Z,4.50
2019-05-05T06:53:14.726Z,4.90
2019-05-05T06:55:45.462Z,4.70
2019-05-05T06:58:16.173Z,4.50
2019-05-05T07:00:46.641Z,5.00
2019-05-05T07:03:17.121Z,4.80
2019-05-05T07:05:47.893Z,4.70
2019-05-05T07:08:18.326Z,4.50
2019-05-05T07:10:48.757Z,4.60
2019-05-05T07:13:19.632Z,4.40
2019-05-05T07:15:50.046Z,4.80
2019-05-05T07:18:20.563Z,4.80
2019-05-05T07:20:50.936Z,5.00
2019-05-05T07:23:21.791Z,4.80
2019-05-05T07:25:54.352Z,4.80
2019-05-05T07:28:24.690Z,4.80
2019-05-05T07:30:56.562Z,4.80
2019-05-05T07:33:27.300Z,5.00
2019-05-05T07:36:17.082Z,5.10
2019-05-05T07:38:48.858Z,4.90
2019-05-05T07:41:20.918Z,5.00
2019-05-05T07:43:51.372Z,5.00
2019-05-05T07:46:24.157Z,5.20
2019-05-05T07:48:54.685Z,4.90
2019-05-05T07:51:25.185Z,5.30
2019-05-05T07:53:55.868Z,5.20
2019-05-05T07:56:26.770Z,5.00
2019-05-05T07:58:57.287Z,5.20
2019-05-05T08:01:30.552Z,5.30
2019-05-05T08:04:01.305Z,5.60
2019-05-05T08:06:33.894Z,5.60
2019-05-05T08:09:06.536Z,5.50
2019-05-05T08:11:38.327Z,5.60
2019-05-05T08:14:10.194Z,5.80
2019-05-05T08:16:48.760Z,5.60
2019-05-05T08:19:38.213Z,5.80
2019-05-05T08:22:09.079Z,5.50
2019-05-05T08:25:14.529Z,5.60
2019-05-05T08:28:08.898Z,5.60
2019-05-05T08:31:03.799Z,5.80
2019-05-05T08:33:35.573Z,5.80
2019-05-05T08:36:07.852Z,5.80
2019-05-05T08:38:38.399Z,5.90
2019-05-05T08:41:09.731Z,5.90
2019-05-05T08:43:40.378Z,5.90
2019-05-05T08:46:15.445Z,5.90
2019-05-05T08:48:45.912Z,5.80
2019-05-05T08:51:16.597Z,5.80
2019-05-05T08:53:48.941Z,5.80
2019-05-05T08:56:20.817Z,6.20
2019-05-05T08:58:51.401Z,6.70
2019-05-05T09:01:23.804Z,6.70
2019-05-05T09:03:54.890Z,6.60
2019-05-05T09:06:25.312Z,6.50
2019-05-05T09:08:55.989Z,6.20
2019-05-05T09:11:26.962Z,6.20
2019-05-05T09:13:57.652Z,6.20
2019-05-05T09:16:28.465Z,6.20
2019-05-05T09:19:09.634Z,6.10
2019-05-05T09:21:40.215Z,6.50
2019-05-05T09:24:34.119Z,6.20
2019-05-05T09:27:09.500Z,6.20
2019-05-05T09:29:43.998Z,6.40
2019-05-05T09:32:14.540Z,6.30
2019-05-05T09:34:46.048Z,6.90
2019-05-05T09:37:16.454Z,7.00
2019-05-05T09:39:46.982Z,6.80
2019-05-05T09:42:18.068Z,6.60
2019-05-05T09:44:48.926Z,6.70
2019-05-05T09:47:19.375Z,6.70
2019-05-05T09:49:51.152Z,6.60
2019-05-05T09:52:21.613Z,6.70
2019-05-05T09:54:54.270Z,6.60
2019-05-05T09:57:24.609Z,7.00
2019-05-05T10:00:07.206Z,7.30
2019-05-05T10:02:39.010Z,6.90
2019-05-05T10:05:09.797Z,7.40
2019-05-05T10:07:40.214Z,7.20
2019-05-05T10:10:13.814Z,7.10
2019-05-05T10:12:45.001Z,6.70
2019-05-05T10:15:16.430Z,6.80
2019-05-05T10:17:47.195Z,6.30
2019-05-05T10:20:18.190Z,6.20
2019-05-05T10:22:48.597Z,6.20
2019-05-05T10:25:36.362Z,6.20
2019-05-05T10:28:07.062Z,6.20
2019-05-05T10:30:37.908Z,6.30
2019-05-05T10:33:10.195Z,6.20
2019-05-05T10:35:40.882Z,6.50
2019-05-05T10:38:14.303Z,6.20
2019-05-05T10:40:48.160Z,6.50
2019-05-05T10:43:18.746Z,6.40
2019-05-05T10:45:49.553Z,6.30
2019-05-05T10:48:20.433Z,6.20
2019-05-05T10:51:09.572Z,6.20
2019-05-05T10:53:39.613Z,6.20
2019-05-05T10:56:09.900Z,6.50
2019-05-05T10:58:39.972Z,6.20
2019-05-05T11:01:10.465Z,6.50
2019-05-05T11:03:40.548Z,6.80
2019-05-05T11:06:10.524Z,6.80
2019-05-05T11:08:41.312Z,6.50
2019-05-05T11:11:13.559Z,7.10
2019-05-05T11:13:45.639Z,6.80
2019-05-05T11:16:15.817Z,7.20
2019-05-05T11:18:46.014Z,7.40
2019-05-05T11:21:16.139Z,7.40
2019-05-05T11:23:46.362Z,7.70
2019-05-05T11:26:16.678Z,7.50
2019-05-05T11:28:46.941Z,7.80
2019-05-05T11:31:17.256Z,7.50
2019-05-05T11:34:07.017Z,7.60
2019-05-05T11:37:01.299Z,7.20
2019-05-05T11:39:33.898Z,7.60
2019-05-05T11:42:04.438Z,7.90
2019-05-05T11:44:36.362Z,8.00
2019-05-05T11:47:06.373Z,8.10
2019-05-05T11:49:38.268Z,8.20
2019-05-05T11:52:08.695Z,8.20
2019-05-05T11:54:40.796Z,8.40
2019-05-05T11:57:13.445Z,8.20
2019-05-05T11:59:43.424Z,8.40
2019-05-05T12:02:14.134Z,8.40
2019-05-05T12:04:44.500Z,8.10
2019-05-05T12:07:15.010Z,7.90
2019-05-05T12:09:54.840Z,7.90
2019-05-05T12:12:26.386Z,8.00
2019-05-05T12:14:56.564Z,8.00
2019-05-05T12:17:36.033Z,8.10
2019-05-05T12:20:09.683Z,8.10
2019-05-05T12:22:39.752Z,8.00
2019-05-05T12:25:31.030Z,8.10
2019-05-05T12:28:06.178Z,7.70
2019-05-05T12:30:38.319Z,8.00
2019-05-05T12:33:08.492Z,7.70
2019-05-05T12:35:41.104Z,7.80
2019-05-05T12:38:11.245Z,7.60
2019-05-05T12:40:44.077Z,7.80
2019-05-05T12:43:14.233Z,8.00
2019-05-05T12:45:46.609Z,8.10
2019-05-05T12:48:24.038Z,8.40
2019-05-05T12:50:54.282Z,8.60
2019-05-05T12:53:24.855Z,8.70
2019-05-05T12:55:56.362Z,8.80
2019-05-05T12:58:29.485Z,8.70
2019-05-05T13:01:18.839Z,8.70
2019-05-05T13:03:49.410Z,8.50
2019-05-05T13:06:19.904Z,8.20
2019-05-05T13:08:50.939Z,7.70
2019-05-05T13:11:23.656Z,7.70
2019-05-05T13:13:54.558Z,7.70
2019-05-05T13:16:26.534Z,7.20
2019-05-05T13:18:57.154Z,7.40
2019-05-05T13:21:44.868Z,7.40
2019-05-05T13:24:34.333Z,7.50
2019-05-05T13:27:11.383Z,7.60
2019-05-05T13:29:41.296Z,7.70
2019-05-05T13:32:11.336Z,8.10
2019-05-05T13:34:43.882Z,8.00
2019-05-05T13:37:15.941Z,8.10
2019-05-05T13:39:46.295Z,8.20
2019-05-05T13:42:16.578Z,8.10
2019-05-05T13:45:14.503Z,8.20
2019-05-05T13:47:45.305Z,8.30
2019-05-05T13:50:20.464Z,8.50
2019-05-05T13:52:50.564Z,8.60
2019-05-05T13:55:20.778Z,8.80
2019-05-05T13:57:51.634Z,8.70
2019-05-05T14:00:25.570Z,8.80
2019-05-05T14:02:55.856Z,8.80
2019-05-05T14:05:25.952Z,9.20
2019-05-05T14:07:56.256Z,9.00
2019-05-05T14:10:29.226Z,9.50
2019-05-05T14:12:59.789Z,9.00
2019-05-05T14:15:30.419Z,8.70
2019-05-05T14:18:23.552Z,8.40
2019-05-05T14:20:54.004Z,8.10
2019-05-05T14:23:25.285Z,8.00
2019-05-05T14:25:55.960Z,7.50
2019-05-05T14:28:31.151Z,7.70
2019-05-05T14:31:08.823Z,7.70
2019-05-05T14:33:50.651Z,7.50
2019-05-05T14:36:44.120Z,7.70
2019-05-05T14:39:16.499Z,7.70
2019-05-05T14:41:47.416Z,7.50
2019-05-05T14:44:17.490Z,8.10
2019-05-05T14:46:48.597Z,8.00
2019-05-05T14:49:24.682Z,8.30
2019-05-05T14:51:55.876Z,8.20
2019-05-05T14:54:26.045Z,8.30
2019-05-05T14:56:56.316Z,8.30
2019-05-05T14:59:26.371Z,8.50
2019-05-05T15:01:56.671Z,8.50
2019-05-05T15:04:28.293Z,8.40
2019-05-05T15:07:05.620Z,8.50
2019-05-05T15:09:47.936Z,8.50
2019-05-05T15:12:44.655Z,8.50
2019-05-05T15:15:15.007Z,8.90
2019-05-05T15:17:45.834Z,8.80
2019-05-05T15:20:16.245Z,8.80
2019-05-05T15:22:47.041Z,8.80
2019-05-05T15:25:17.801Z,8.80
2019-05-05T15:27:48.136Z,8.70
2019-05-05T15:30:18.752Z,8.80
2019-05-05T15:32:48.823Z,8.70
2019-05-05T15:35:19.049Z,8.80
2019-05-05T15:37:49.720Z,8.80
2019-05-05T15:40:20.148Z,8.70
2019-05-05T15:42:50.808Z,8.40
2019-05-05T15:45:20.986Z,8.30
2019-05-05T15:47:51.677Z,8.40
2019-05-05T15:50:29.016Z,8.10
2019-05-05T15:52:59.183Z,8.20
2019-05-05T15:55:29.977Z,8.10
2019-05-05T15:58:00.195Z,8.10
2019-05-05T16:00:30.430Z,7.90
2019-05-05T16:03:01.039Z,8.10
2019-05-05T16:05:31.217Z,7.90
2019-05-05T16:08:01.645Z,8.30
2019-05-05T16:10:34.848Z,8.30
2019-05-05T16:13:05.478Z,8.10
2019-05-05T16:15:55.729Z,8.30
2019-05-05T16:18:40.388Z,8.20
2019-05-05T16:21:27.676Z,8.30
2019-05-05T16:24:03.554Z,8.50
2019-05-05T16:26:34.119Z,8.50
2019-05-05T16:29:04.366Z,8.50
2019-05-05T16:31:34.538Z,8.50
2019-05-05T16:34:05.035Z,8.20
2019-05-05T16:36:35.384Z,8.00
2019-05-05T16:39:08.123Z,8.10
2019-05-05T16:41:43.293Z,7.90
2019-05-05T16:44:15.568Z,8.10
2019-05-05T16:46:47.428Z,8.20
2019-05-05T16:49:18.209Z,7.90
2019-05-05T16:51:54.720Z,8.00
2019-05-05T16:54:31.289Z,8.20
2019-05-05T16:57:03.966Z,8.10
2019-05-05T16:59:34.072Z,7.90
2019-05-05T17:02:04.786Z,8.00
2019-05-05T17:04:35.670Z,7.80
2019-05-05T17:07:06.814Z,7.80
2019-05-05T17:09:36.920Z,8.00
2019-05-05T17:12:10.392Z,7.80
2019-05-05T17:14:50.437Z,7.80
2019-05-05T17:17:36.592Z,7.70
2019-05-05T17:20:10.641Z,7.80
2019-05-05T17:22:54.656Z,7.70
2019-05-05T17:25:24.824Z,7.50
2019-05-05T17:27:55.996Z,7.60
2019-05-05T17:30:27.205Z,7.70
2019-05-05T17:32:57.583Z,7.50
2019-05-05T17:35:27.564Z,7.60
2019-05-05T17:38:08.156Z,7.80
2019-05-05T17:43:57.282Z,7.80
2019-05-05T17:46:49.702Z,7.60
2019-05-05T17:49:45.217Z,7.70
2019-05-05T17:52:28.302Z,7.70
2019-05-05T17:55:00.669Z,7.70
2019-05-05T17:57:31.265Z,7.70
2019-05-05T18:00:01.686Z,7.70
2019-05-05T18:02:34.341Z,7.80
2019-05-05T18:05:04.987Z,7.40
2019-05-05T18:07:40.216Z,7.20
2019-05-05T18:10:19.394Z,7.70
2019-05-05T18:13:14.274Z,7.20
2019-05-05T18:16:09.933Z,7.50
2019-05-05T18:18:41.204Z,7.40
2019-05-05T18:21:14.097Z,7.20
2019-05-05T18:23:45.257Z,7.30
2019-05-05T18:26:15.978Z,7.40
2019-05-05T18:28:48.214Z,7.40
2019-05-05T18:31:18.748Z,7.20
2019-05-05T18:33:50.553Z,7.00
2019-05-05T18:36:21.126Z,7.30
2019-05-05T18:38:55.549Z,7.40
2019-05-05T18:41:48.886Z,7.20
2019-05-05T18:44:31.182Z,7.40
2019-05-05T18:47:17.510Z,7.20
2019-05-05T18:49:48.196Z,7.30
2019-05-05T18:52:18.824Z,7.20
2019-05-05T18:54:49.585Z,7.30
2019-05-05T18:57:20.486Z,6.90
2019-05-05T18:59:54.006Z,7.10
2019-05-05T19:02:44.302Z,6.90
2019-05-05T19:05:41.367Z,7.10
2019-05-05T19:08:18.629Z,7.20
2019-05-05T19:10:49.371Z,7.30
2019-05-05T19:13:21.806Z,7.10
2019-05-05T19:15:53.904Z,7.00
2019-05-05T19:18:24.962Z,7.10
2019-05-05T19:21:00.909Z,6.90
2019-05-05T19:23:33.789Z,7.10
2019-05-05T19:26:07.635Z,6.80
2019-05-05T19:28:43.927Z,7.20
2019-05-05T19:31:10.719Z,7.00
2019-05-05T19:33:42.079Z,7.40
2019-05-05T19:36:12.995Z,6.90
2019-05-05T19:38:44.110Z,7.20
2019-05-05T19:41:14.997Z,7.00
2019-05-05T19:43:55.543Z,6.80
2019-05-05T19:46:35.408Z,6.90
2019-05-05T19:49:15.951Z,6.80
2019-05-05T19:51:47.551Z,7.30
2019-05-05T19:54:18.286Z,6.80
2019-05-05T19:56:49.076Z,7.10
2019-05-05T19:59:19.549Z,6.80
2019-05-05T20:01:51.367Z,7.10
2019-05-05T20:04:24.094Z,6.80
2019-05-05T20:06:56.542Z,6.90
2019-05-05T20:09:26.977Z,6.80
2019-05-05T20:11:58.828Z,7.00
2019-05-05T20:14:29.674Z,6.90
2019-05-05T20:17:06.433Z,6.60
2019-05-05T20:19:41.033Z,6.80
2019-05-05T20:22:14.344Z,6.90
2019-05-05T20:24:44.607Z,7.00
2019-05-05T20:27:16.656Z,6.50
2019-05-05T20:29:49.003Z,6.60
2019-05-05T20:32:26.430Z,6.60
2019-05-05T20:35:09.229Z,6.50
2019-05-05T20:37:49.137Z,6.60
2019-05-05T20:40:24.437Z,6.60
2019-05-05T20:42:55.176Z,6.50
2019-05-05T20:45:28.187Z,6.50
2019-05-05T20:47:59.210Z,6.60
2019-05-05T20:50:31.585Z,6.50
2019-05-05T20:53:04.835Z,6.60
2019-05-05T20:55:38.457Z,6.50
2019-05-05T20:58:10.334Z,6.30
2019-05-05T21:00:41.034Z,6.50
2019-05-05T21:03:11.464Z,6.30
2019-05-05T21:05:44.217Z,6.20
2019-05-05T21:08:14.825Z,6.20
2019-05-05T21:10:45.684Z,6.20
2019-05-05T21:13:16.167Z,5.90
2019-05-05T21:15:48.481Z,6.10
2019-05-05T21:18:19.401Z,6.10
2019-05-05T21:20:50.196Z,6.20
2019-05-05T21:23:27.882Z,6.40
2019-05-05T21:26:04.277Z,6.00
2019-05-05T21:28:36.700Z,6.20
2019-05-05T21:31:07.435Z,6.20
2019-05-05T21:33:38.545Z,6.20
2019-05-05T21:36:10.665Z,6.00
2019-05-05T21:38:41.123Z,5.90
2019-05-05T21:41:13.821Z,6.10
2019-05-05T21:43:44.948Z,5.90
2019-05-05T21:46:15.402Z,6.20
2019-05-05T21:48:45.933Z,6.40
2019-05-05T21:51:28.179Z,5.90
2019-05-05T21:54:17.265Z,6.10
2019-05-05T21:57:05.943Z,6.30
2019-05-05T21:59:36.434Z,5.90
2019-05-05T22:02:07.551Z,5.90
2019-05-05T22:04:38.898Z,5.70
2019-05-05T22:07:10.817Z,5.80
2019-05-05T22:09:41.231Z,5.80
2019-05-05T22:12:13.506Z,5.60
2019-05-05T22:14:44.101Z,6.00
2019-05-05T22:17:14.771Z,5.80
2019-05-05T22:19:54.749Z,5.60
2019-05-05T22:22:27.066Z,6.00
2019-05-05T22:24:59.363Z,5.60
2019-05-05T22:27:30.437Z,5.80
2019-05-05T22:30:09.386Z,5.60
2019-05-05T22:32:35.081Z,5.50
2019-05-05T22:35:06.083Z,5.60
2019-05-05T22:37:36.840Z,5.60
2019-05-05T22:40:07.641Z,5.50
2019-05-05T22:42:38.385Z,5.30
2019-05-05T22:45:10.397Z,5.30
2019-05-05T22:47:41.328Z,5.10
2019-05-05T22:50:13.786Z,5.00
2019-05-05T22:52:44.749Z,5.00
2019-05-05T22:55:15.547Z,5.20
2019-05-05T22:57:46.255Z,4.70
2019-05-05T23:00:26.675Z,4.70
2019-05-05T23:03:01.593Z,4.70
2019-05-05T23:05:48.581Z,5.00
2019-05-05T23:08:19.193Z,5.00
2019-05-05T23:10:49.683Z,4.90
2019-05-05T23:13:20.242Z,4.60
2019-05-05T23:15:57.784Z,5.00
2019-05-05T23:18:28.292Z,4.60
2019-05-05T23:21:17.913Z,4.80
2019-05-05T23:24:05.649Z,4.80
2019-05-05T23:26:39.277Z,4.70
2019-05-05T23:29:10.057Z,4.80
2019-05-05T23:31:41.464Z,4.80
2019-05-05T23:34:11.993Z,4.80
2019-05-05T23:36:44.319Z,4.80
2019-05-05T23:39:14.890Z,4.70
2019-05-05T23:41:45.730Z,4.80
2019-05-05T23:44:16.156Z,4.80
2019-05-05T23:46:47.610Z,4.80
2019-05-05T23:49:18.085Z,4.80
2019-05-05T23:51:49.982Z,4.70
2019-05-05T23:54:20.688Z,4.80
2019-05-05T23:56:51.190Z,4.70
2019-05-05T23:59:24.126Z,4.40
